sensor_id;sensor_type;location;lat;lon;timestamp;temperature;humidity
47168;DHT22;32931;47.778;17.806;2022-09-20T00:00:09;11.50;99.90
47168;DHT22;32931;47.778;17.806;2022-09-20T00:02:36;11.50;99.90
47168;DHT22;32931;47.778;17.806;2022-09-20T00:05:03;11.50;99.90
47168;DHT22;32931;47.778;17.806;2022-09-20T00:07:29;11.50;99.90
47168;DHT22;32931;47.778;17.806;2022-09-20T00:09:56;11.50;99.90
47168;DHT22;32931;47.778;17.806;2022-09-20T00:12:22;11.40;99.90
47168;DHT22;32931;47.778;17.806;2022-09-20T00:14:49;11.40;99.90
47168;DHT22;32931;47.778;17.806;2022-09-20T00:17:15;11.40;99.90
47168;DHT22;32931;47.778;17.806;2022-09-20T00:19:41;11.50;99.90
47168;DHT22;32931;47.778;17.806;2022-09-20T00:22:07;11.40;99.90
47168;DHT22;32931;47.778;17.806;2022-09-20T00:24:34;11.50;99.90
47168;DHT22;32931;47.778;17.806;2022-09-20T00:27:02;11.50;99.90
47168;DHT22;32931;47.778;17.806;2022-09-20T00:29:28;11.50;99.90
47168;DHT22;32931;47.778;17.806;2022-09-20T00:31:55;11.50;99.90
47168;DHT22;32931;47.778;17.806;2022-09-20T00:34:21;11.50;99.90
47168;DHT22;32931;47.778;17.806;2022-09-20T00:37:05;11.40;99.90
47168;DHT22;32931;47.778;17.806;2022-09-20T00:39:32;11.40;99.90
47168;DHT22;32931;47.778;17.806;2022-09-20T00:41:58;11.30;99.90
47168;DHT22;32931;47.778;17.806;2022-09-20T00:52:42;11.20;99.90
47168;DHT22;32931;47.778;17.806;2022-09-20T00:55:10;11.20;99.90
47168;DHT22;32931;47.778;17.806;2022-09-20T00:57:38;11.20;99.90
47168;DHT22;32931;47.778;17.806;2022-09-20T01:00:09;11.20;99.90
47168;DHT22;32931;47.778;17.806;2022-09-20T01:02:45;11.20;99.90
47168;DHT22;32931;47.778;17.806;2022-09-20T01:05:13;11.20;99.90
47168;DHT22;32931;47.778;17.806;2022-09-20T01:07:41;11.20;99.90
47168;DHT22;32931;47.778;17.806;2022-09-20T01:10:09;11.20;99.90
47168;DHT22;32931;47.778;17.806;2022-09-20T01:12:36;11.20;99.90
47168;DHT22;32931;47.778;17.806;2022-09-20T01:15:06;11.30;99.90
47168;DHT22;32931;47.778;17.806;2022-09-20T01:17:35;11.40;99.90
47168;DHT22;32931;47.778;17.806;2022-09-20T01:20:18;11.40;99.90
47168;DHT22;32931;47.778;17.806;2022-09-20T01:27:54;11.40;99.90
47168;DHT22;32931;47.778;17.806;2022-09-20T01:30:24;11.40;99.90
47168;DHT22;32931;47.778;17.806;2022-09-20T01:35:49;11.40;99.90
47168;DHT22;32931;47.778;17.806;2022-09-20T01:38:39;11.50;99.90
47168;DHT22;32931;47.778;17.806;2022-09-20T01:41:22;11.50;99.90
47168;DHT22;32931;47.778;17.806;2022-09-20T01:43:52;11.50;99.90
47168;DHT22;32931;47.778;17.806;2022-09-20T01:48:58;11.50;99.90
47168;DHT22;32931;47.778;17.806;2022-09-20T02:00:24;11.50;99.90
47168;DHT22;32931;47.778;17.806;2022-09-20T02:06:19;11.40;99.90
47168;DHT22;32931;47.778;17.806;2022-09-20T02:09:11;11.30;99.90
47168;DHT22;32931;47.778;17.806;2022-09-20T02:11:52;11.30;99.90
47168;DHT22;32931;47.778;17.806;2022-09-20T02:16:56;11.30;99.90
47168;DHT22;32931;47.778;17.806;2022-09-20T02:19:27;11.20;99.90
47168;DHT22;32931;47.778;17.806;2022-09-20T02:30:54;11.20;99.90
47168;DHT22;32931;47.778;17.806;2022-09-20T02:36:29;11.10;99.90
47168;DHT22;32931;47.778;17.806;2022-09-20T02:39:10;11.10;99.90
47168;DHT22;32931;47.778;17.806;2022-09-20T02:42:07;11.20;99.90
47168;DHT22;32931;47.778;17.806;2022-09-20T02:44:44;11.20;99.90
47168;DHT22;32931;47.778;17.806;2022-09-20T02:47:26;11.20;99.90
47168;DHT22;32931;47.778;17.806;2022-09-20T02:55:25;11.20;99.90
47168;DHT22;32931;47.778;17.806;2022-09-20T03:00:51;11.20;99.90
47168;DHT22;32931;47.778;17.806;2022-09-20T03:14:59;11.20;99.90
47168;DHT22;32931;47.778;17.806;2022-09-20T03:34:05;10.90;99.90
47168;DHT22;32931;47.778;17.806;2022-09-20T03:36:56;10.90;99.90
47168;DHT22;32931;47.778;17.806;2022-09-20T03:42:14;10.80;99.90
47168;DHT22;32931;47.778;17.806;2022-09-20T04:05:08;10.70;99.90
47168;DHT22;32931;47.778;17.806;2022-09-20T04:11:00;10.70;99.90
47168;DHT22;32931;47.778;17.806;2022-09-20T04:13:41;10.70;99.90
47168;DHT22;32931;47.778;17.806;2022-09-20T04:16:46;10.60;99.90
47168;DHT22;32931;47.778;17.806;2022-09-20T04:22:02;10.60;99.90
47168;DHT22;32931;47.778;17.806;2022-09-20T04:27:18;10.60;99.90
47168;DHT22;32931;47.778;17.806;2022-09-20T04:35:44;10.60;99.90
47168;DHT22;32931;47.778;17.806;2022-09-20T04:38:31;10.60;99.90
47168;DHT22;32931;47.778;17.806;2022-09-20T04:41:22;10.60;99.90
47168;DHT22;32931;47.778;17.806;2022-09-20T04:49:34;10.50;99.90
47168;DHT22;32931;47.778;17.806;2022-09-20T04:55:49;10.60;99.90
47168;DHT22;32931;47.778;17.806;2022-09-20T05:09:34;10.70;99.90
47168;DHT22;32931;47.778;17.806;2022-09-20T05:12:29;10.70;99.90
47168;DHT22;32931;47.778;17.806;2022-09-20T05:26:07;10.90;99.90
47168;DHT22;32931;47.778;17.806;2022-09-20T05:36:52;10.90;99.90
47168;DHT22;32931;47.778;17.806;2022-09-20T05:39:37;10.90;99.90
47168;DHT22;32931;47.778;17.806;2022-09-20T05:55:47;11.20;99.90
47168;DHT22;32931;47.778;17.806;2022-09-20T05:58:49;11.30;99.90
47168;DHT22;32931;47.778;17.806;2022-09-20T06:01:25;11.40;99.90
47168;DHT22;32931;47.778;17.806;2022-09-20T06:03:59;11.50;99.90
47168;DHT22;32931;47.778;17.806;2022-09-20T06:15:37;11.80;99.90
47168;DHT22;32931;47.778;17.806;2022-09-20T06:18:25;11.90;99.90
47168;DHT22;32931;47.778;17.806;2022-09-20T06:22:01;11.90;99.90
47168;DHT22;32931;47.778;17.806;2022-09-20T06:23:59;12.00;99.90
47168;DHT22;32931;47.778;17.806;2022-09-20T11:06:15;14.80;99.90
47168;DHT22;32931;47.778;17.806;2022-09-20T11:08:47;15.70;99.90
47168;DHT22;32931;47.778;17.806;2022-09-20T11:11:24;15.40;99.90
47168;DHT22;32931;47.778;17.806;2022-09-20T11:14:02;15.40;99.90
47168;DHT22;32931;47.778;17.806;2022-09-20T11:16:45;15.30;99.90
47168;DHT22;32931;47.778;17.806;2022-09-20T11:19:23;15.30;99.90
47168;DHT22;32931;47.778;17.806;2022-09-20T11:22:01;15.30;99.90
47168;DHT22;32931;47.778;17.806;2022-09-20T11:24:50;15.40;99.90
47168;DHT22;32931;47.778;17.806;2022-09-20T11:27:27;15.40;99.90
47168;DHT22;32931;47.778;17.806;2022-09-20T11:30:16;15.40;99.90
47168;DHT22;32931;47.778;17.806;2022-09-20T11:35:32;15.50;99.90
47168;DHT22;32931;47.778;17.806;2022-09-20T11:38:09;15.50;99.90
47168;DHT22;32931;47.778;17.806;2022-09-20T11:41:22;15.50;99.90
47168;DHT22;32931;47.778;17.806;2022-09-20T11:43:31;15.60;99.90
47168;DHT22;32931;47.778;17.806;2022-09-20T11:46:03;15.60;99.90
47168;DHT22;32931;47.778;17.806;2022-09-20T11:48:41;15.70;99.90
47168;DHT22;32931;47.778;17.806;2022-09-20T11:54:37;15.80;99.90
47168;DHT22;32931;47.778;17.806;2022-09-20T11:57:04;15.90;99.90
47168;DHT22;32931;47.778;17.806;2022-09-20T11:59:34;15.90;99.90
47168;DHT22;32931;47.778;17.806;2022-09-20T12:02:12;15.80;99.90
47168;DHT22;32931;47.778;17.806;2022-09-20T12:04:43;15.80;99.90
47168;DHT22;32931;47.778;17.806;2022-09-20T12:07:51;15.70;99.90
47168;DHT22;32931;47.778;17.806;2022-09-20T12:10:40;15.50;99.90
47168;DHT22;32931;47.778;17.806;2022-09-20T12:13:19;15.40;99.90
47168;DHT22;32931;47.778;17.806;2022-09-20T12:16:06;15.30;99.90
47168;DHT22;32931;47.778;17.806;2022-09-20T12:28:48;15.20;99.90
47168;DHT22;32931;47.778;17.806;2022-09-20T12:36:24;15.00;99.90
47168;DHT22;32931;47.778;17.806;2022-09-20T12:38:56;14.90;99.90
47168;DHT22;32931;47.778;17.806;2022-09-20T12:41:23;14.90;99.90
47168;DHT22;32931;47.778;17.806;2022-09-20T12:44:36;15.00;99.90
47168;DHT22;32931;47.778;17.806;2022-09-20T12:46:41;15.00;99.90
47168;DHT22;32931;47.778;17.806;2022-09-20T13:06:19;15.30;99.90
47168;DHT22;32931;47.778;17.806;2022-09-20T13:21:32;15.50;99.90
47168;DHT22;32931;47.778;17.806;2022-09-20T13:23:59;15.60;99.90
47168;DHT22;32931;47.778;17.806;2022-09-20T13:26:39;15.60;99.90
47168;DHT22;32931;47.778;17.806;2022-09-20T13:29:08;15.30;99.90
47168;DHT22;32931;47.778;17.806;2022-09-20T13:31:43;15.10;99.90
47168;DHT22;32931;47.778;17.806;2022-09-20T13:34:23;14.40;99.90
47168;DHT22;32931;47.778;17.806;2022-09-20T13:36:54;13.80;99.90
47168;DHT22;32931;47.778;17.806;2022-09-20T13:39:30;13.40;99.90
47168;DHT22;32931;47.778;17.806;2022-09-20T13:42:10;13.10;99.90
47168;DHT22;32931;47.778;17.806;2022-09-20T13:44:41;13.00;99.90
47168;DHT22;32931;47.778;17.806;2022-09-20T13:47:28;12.90;99.90
47168;DHT22;32931;47.778;17.806;2022-09-20T13:50:26;12.90;99.90
47168;DHT22;32931;47.778;17.806;2022-09-20T13:52:51;12.90;99.90
47168;DHT22;32931;47.778;17.806;2022-09-20T13:55:29;12.80;99.90
47168;DHT22;32931;47.778;17.806;2022-09-20T13:58:00;12.90;99.90
47168;DHT22;32931;47.778;17.806;2022-09-20T14:00:28;12.90;99.90
47168;DHT22;32931;47.778;17.806;2022-09-20T14:02:56;12.90;99.90
47168;DHT22;32931;47.778;17.806;2022-09-20T14:05:25;12.90;99.90
47168;DHT22;32931;47.778;17.806;2022-09-20T14:07:52;13.00;99.90
47168;DHT22;32931;47.778;17.806;2022-09-20T14:10:45;13.10;99.90
47168;DHT22;32931;47.778;17.806;2022-09-20T14:13:15;13.20;99.90
47168;DHT22;32931;47.778;17.806;2022-09-20T14:15:43;13.30;99.90
47168;DHT22;32931;47.778;17.806;2022-09-20T14:18:15;13.40;99.90
47168;DHT22;32931;47.778;17.806;2022-09-20T14:20:45;13.50;99.90
47168;DHT22;32931;47.778;17.806;2022-09-20T14:23:29;13.60;99.90
47168;DHT22;32931;47.778;17.806;2022-09-20T14:28:43;13.90;99.90
47168;DHT22;32931;47.778;17.806;2022-09-20T14:31:30;13.90;99.90
47168;DHT22;32931;47.778;17.806;2022-09-20T14:34:01;14.00;99.90
47168;DHT22;32931;47.778;17.806;2022-09-20T14:36:29;14.00;99.90
47168;DHT22;32931;47.778;17.806;2022-09-20T14:39:02;14.10;99.90
47168;DHT22;32931;47.778;17.806;2022-09-20T14:41:37;14.30;99.90
47168;DHT22;32931;47.778;17.806;2022-09-20T14:44:13;14.60;99.90
47168;DHT22;32931;47.778;17.806;2022-09-20T14:46:42;14.80;99.90
47168;DHT22;32931;47.778;17.806;2022-09-20T14:52:20;14.90;99.90
47168;DHT22;32931;47.778;17.806;2022-09-20T14:54:37;14.80;99.90
47168;DHT22;32931;47.778;17.806;2022-09-20T14:57:04;14.80;99.90
47168;DHT22;32931;47.778;17.806;2022-09-20T14:59:41;14.90;99.90
47168;DHT22;32931;47.778;17.806;2022-09-20T15:02:12;15.20;99.90
47168;DHT22;32931;47.778;17.806;2022-09-20T15:04:54;15.40;99.90
47168;DHT22;32931;47.778;17.806;2022-09-20T15:07:21;15.70;99.90
47168;DHT22;32931;47.778;17.806;2022-09-20T15:09:47;16.20;99.90
47168;DHT22;32931;47.778;17.806;2022-09-20T15:12:16;16.60;99.90
47168;DHT22;32931;47.778;17.806;2022-09-20T15:14:43;16.70;99.90
47168;DHT22;32931;47.778;17.806;2022-09-20T15:17:13;16.60;99.90
47168;DHT22;32931;47.778;17.806;2022-09-20T15:19:40;16.50;99.90
47168;DHT22;32931;47.778;17.806;2022-09-20T15:22:08;16.60;99.90
47168;DHT22;32931;47.778;17.806;2022-09-20T15:24:35;16.80;99.90
47168;DHT22;32931;47.778;17.806;2022-09-20T15:27:01;16.70;99.90
47168;DHT22;32931;47.778;17.806;2022-09-20T15:29:27;16.50;99.90
47168;DHT22;32931;47.778;17.806;2022-09-20T15:31:54;16.40;99.90
47168;DHT22;32931;47.778;17.806;2022-09-20T15:34:20;16.20;99.90
47168;DHT22;32931;47.778;17.806;2022-09-20T15:36:46;15.90;99.90
47168;DHT22;32931;47.778;17.806;2022-09-20T15:39:13;15.80;99.90
47168;DHT22;32931;47.778;17.806;2022-09-20T15:41:39;15.60;99.90
47168;DHT22;32931;47.778;17.806;2022-09-20T15:44:06;15.50;99.90
47168;DHT22;32931;47.778;17.806;2022-09-20T15:46:33;15.40;99.90
47168;DHT22;32931;47.778;17.806;2022-09-20T15:49:00;15.40;99.90
47168;DHT22;32931;47.778;17.806;2022-09-20T15:51:28;15.10;99.90
47168;DHT22;32931;47.778;17.806;2022-09-20T15:53:58;15.00;99.90
47168;DHT22;32931;47.778;17.806;2022-09-20T15:56:28;14.90;99.90
47168;DHT22;32931;47.778;17.806;2022-09-20T15:59:00;14.80;99.90
47168;DHT22;32931;47.778;17.806;2022-09-20T16:01:31;14.70;99.90
47168;DHT22;32931;47.778;17.806;2022-09-20T16:03:58;14.60;99.90
47168;DHT22;32931;47.778;17.806;2022-09-20T16:06:25;14.50;99.90
47168;DHT22;32931;47.778;17.806;2022-09-20T16:08:51;14.40;99.90
47168;DHT22;32931;47.778;17.806;2022-09-20T16:11:19;14.40;99.90
47168;DHT22;32931;47.778;17.806;2022-09-20T16:13:51;14.40;99.90
47168;DHT22;32931;47.778;17.806;2022-09-20T16:16:17;14.30;99.90
47168;DHT22;32931;47.778;17.806;2022-09-20T16:18:43;14.20;99.90
47168;DHT22;32931;47.778;17.806;2022-09-20T16:21:33;14.10;99.90
47168;DHT22;32931;47.778;17.806;2022-09-20T16:24:00;14.10;99.90
47168;DHT22;32931;47.778;17.806;2022-09-20T16:26:27;14.10;99.90
47168;DHT22;32931;47.778;17.806;2022-09-20T16:28:54;14.00;99.90
47168;DHT22;32931;47.778;17.806;2022-09-20T16:31:39;14.00;99.90
47168;DHT22;32931;47.778;17.806;2022-09-20T16:34:22;13.80;99.90
47168;DHT22;32931;47.778;17.806;2022-09-20T16:36:53;13.70;99.90
47168;DHT22;32931;47.778;17.806;2022-09-20T16:39:21;13.60;99.90
47168;DHT22;32931;47.778;17.806;2022-09-20T16:41:54;13.60;99.90
47168;DHT22;32931;47.778;17.806;2022-09-20T16:44:28;13.50;99.90
47168;DHT22;32931;47.778;17.806;2022-09-20T16:46:55;13.50;99.90
47168;DHT22;32931;47.778;17.806;2022-09-20T16:49:21;13.50;99.90
47168;DHT22;32931;47.778;17.806;2022-09-20T16:51:48;13.40;99.90
47168;DHT22;32931;47.778;17.806;2022-09-20T16:54:15;13.40;99.90
47168;DHT22;32931;47.778;17.806;2022-09-20T16:56:44;13.40;99.90
47168;DHT22;32931;47.778;17.806;2022-09-20T16:59:12;13.30;99.90
47168;DHT22;32931;47.778;17.806;2022-09-20T17:01:41;13.30;99.90
47168;DHT22;32931;47.778;17.806;2022-09-20T17:04:08;13.20;99.90
47168;DHT22;32931;47.778;17.806;2022-09-20T17:06:36;13.20;99.90
47168;DHT22;32931;47.778;17.806;2022-09-20T17:09:06;13.10;99.90
47168;DHT22;32931;47.778;17.806;2022-09-20T17:11:35;13.00;99.90
47168;DHT22;32931;47.778;17.806;2022-09-20T17:14:02;12.80;99.90
47168;DHT22;32931;47.778;17.806;2022-09-20T17:16:31;12.80;99.90
47168;DHT22;32931;47.778;17.806;2022-09-20T17:19:00;12.70;99.90
47168;DHT22;32931;47.778;17.806;2022-09-20T17:21:28;12.70;99.90
47168;DHT22;32931;47.778;17.806;2022-09-20T17:23:57;12.60;99.90
47168;DHT22;32931;47.778;17.806;2022-09-20T17:26:26;12.60;99.90
47168;DHT22;32931;47.778;17.806;2022-09-20T17:28:54;12.60;99.90
47168;DHT22;32931;47.778;17.806;2022-09-20T17:31:26;12.50;99.90
47168;DHT22;32931;47.778;17.806;2022-09-20T17:33:57;12.40;99.90
47168;DHT22;32931;47.778;17.806;2022-09-20T17:36:27;12.40;99.90
47168;DHT22;32931;47.778;17.806;2022-09-20T17:38:55;12.30;99.90
47168;DHT22;32931;47.778;17.806;2022-09-20T17:41:23;12.20;99.90
47168;DHT22;32931;47.778;17.806;2022-09-20T17:43:57;12.20;99.90
47168;DHT22;32931;47.778;17.806;2022-09-20T17:46:26;12.10;99.90
47168;DHT22;32931;47.778;17.806;2022-09-20T17:48:59;12.10;99.90
47168;DHT22;32931;47.778;17.806;2022-09-20T17:51:31;12.20;99.90
47168;DHT22;32931;47.778;17.806;2022-09-20T17:53:58;12.10;99.90
47168;DHT22;32931;47.778;17.806;2022-09-20T17:56:25;12.10;99.90
47168;DHT22;32931;47.778;17.806;2022-09-20T17:58:57;12.10;99.90
47168;DHT22;32931;47.778;17.806;2022-09-20T18:01:24;12.10;99.90
47168;DHT22;32931;47.778;17.806;2022-09-20T18:03:53;12.10;99.90
47168;DHT22;32931;47.778;17.806;2022-09-20T18:08:56;12.10;99.90
47168;DHT22;32931;47.778;17.806;2022-09-20T18:11:27;12.10;99.90
47168;DHT22;32931;47.778;17.806;2022-09-20T18:13:54;12.00;99.90
47168;DHT22;32931;47.778;17.806;2022-09-20T18:16:20;12.00;99.90
47168;DHT22;32931;47.778;17.806;2022-09-20T18:18:46;11.90;99.90
47168;DHT22;32931;47.778;17.806;2022-09-20T18:21:19;11.90;99.90
47168;DHT22;32931;47.778;17.806;2022-09-20T18:23:46;11.80;99.90
47168;DHT22;32931;47.778;17.806;2022-09-20T18:26:15;11.80;99.90
47168;DHT22;32931;47.778;17.806;2022-09-20T18:29:08;11.80;99.90
47168;DHT22;32931;47.778;17.806;2022-09-20T18:34:05;11.80;99.90
47168;DHT22;32931;47.778;17.806;2022-09-20T18:36:34;11.80;99.90
47168;DHT22;32931;47.778;17.806;2022-09-20T18:39:01;11.80;99.90
47168;DHT22;32931;47.778;17.806;2022-09-20T18:41:30;11.80;99.90
47168;DHT22;32931;47.778;17.806;2022-09-20T18:44:01;11.80;99.90
47168;DHT22;32931;47.778;17.806;2022-09-20T18:46:29;11.80;99.90
47168;DHT22;32931;47.778;17.806;2022-09-20T18:48:57;11.70;99.90
47168;DHT22;32931;47.778;17.806;2022-09-20T18:51:26;11.80;99.90
47168;DHT22;32931;47.778;17.806;2022-09-20T18:53:54;11.70;99.90
47168;DHT22;32931;47.778;17.806;2022-09-20T18:56:31;11.60;99.90
47168;DHT22;32931;47.778;17.806;2022-09-20T18:59:00;11.60;99.90
47168;DHT22;32931;47.778;17.806;2022-09-20T19:07:22;11.50;99.90
47168;DHT22;32931;47.778;17.806;2022-09-20T19:10:06;11.50;99.90
47168;DHT22;32931;47.778;17.806;2022-09-20T19:20:31;11.40;99.90
47168;DHT22;32931;47.778;17.806;2022-09-20T19:28:40;11.40;99.90
47168;DHT22;32931;47.778;17.806;2022-09-20T19:31:21;11.30;99.90
47168;DHT22;32931;47.778;17.806;2022-09-20T19:33:48;11.40;99.90
47168;DHT22;32931;47.778;17.806;2022-09-20T19:36:15;11.30;99.90
47168;DHT22;32931;47.778;17.806;2022-09-20T19:41:59;11.30;99.90
47168;DHT22;32931;47.778;17.806;2022-09-20T19:52:43;11.30;99.90
47168;DHT22;32931;47.778;17.806;2022-09-20T19:55:11;11.30;99.90
47168;DHT22;32931;47.778;17.806;2022-09-20T19:57:42;11.30;99.90
47168;DHT22;32931;47.778;17.806;2022-09-20T20:00:13;11.20;99.90
47168;DHT22;32931;47.778;17.806;2022-09-20T20:02:41;11.30;99.90
47168;DHT22;32931;47.778;17.806;2022-09-20T20:05:13;11.20;99.90
47168;DHT22;32931;47.778;17.806;2022-09-20T20:11:51;11.10;99.90
47168;DHT22;32931;47.778;17.806;2022-09-20T20:13:59;11.00;99.90
47168;DHT22;32931;47.778;17.806;2022-09-20T20:24:54;11.00;99.90
47168;DHT22;32931;47.778;17.806;2022-09-20T20:27:24;10.90;99.90
47168;DHT22;32931;47.778;17.806;2022-09-20T20:29:54;10.90;99.90
47168;DHT22;32931;47.778;17.806;2022-09-20T20:32:20;10.90;99.90
47168;DHT22;32931;47.778;17.806;2022-09-20T20:34:47;10.90;99.90
47168;DHT22;32931;47.778;17.806;2022-09-20T20:37:13;10.90;99.90
47168;DHT22;32931;47.778;17.806;2022-09-20T20:39:40;10.90;99.90
47168;DHT22;32931;47.778;17.806;2022-09-20T20:42:07;10.90;99.90
47168;DHT22;32931;47.778;17.806;2022-09-20T20:44:34;10.80;99.90
47168;DHT22;32931;47.778;17.806;2022-09-20T20:47:02;10.80;99.90
47168;DHT22;32931;47.778;17.806;2022-09-20T20:49:28;10.90;99.90
47168;DHT22;32931;47.778;17.806;2022-09-20T20:51:55;10.80;99.90
47168;DHT22;32931;47.778;17.806;2022-09-20T20:54:22;10.80;99.90
47168;DHT22;32931;47.778;17.806;2022-09-20T20:56:49;10.80;99.90
47168;DHT22;32931;47.778;17.806;2022-09-20T20:59:15;10.80;99.90
47168;DHT22;32931;47.778;17.806;2022-09-20T21:01:42;10.80;99.90
47168;DHT22;32931;47.778;17.806;2022-09-20T21:04:11;10.80;99.90
47168;DHT22;32931;47.778;17.806;2022-09-20T21:06:39;10.80;99.90
47168;DHT22;32931;47.778;17.806;2022-09-20T21:09:07;10.80;99.90
47168;DHT22;32931;47.778;17.806;2022-09-20T21:11:39;10.80;99.90
47168;DHT22;32931;47.778;17.806;2022-09-20T21:14:09;10.80;99.90
47168;DHT22;32931;47.778;17.806;2022-09-20T21:16:39;10.90;99.90
47168;DHT22;32931;47.778;17.806;2022-09-20T21:19:09;10.90;99.90
47168;DHT22;32931;47.778;17.806;2022-09-20T21:21:38;10.80;99.90
47168;DHT22;32931;47.778;17.806;2022-09-20T21:24:08;10.80;99.90
47168;DHT22;32931;47.778;17.806;2022-09-20T21:26:36;10.80;99.90
47168;DHT22;32931;47.778;17.806;2022-09-20T21:29:05;10.80;99.90
47168;DHT22;32931;47.778;17.806;2022-09-20T21:31:33;10.80;99.90
47168;DHT22;32931;47.778;17.806;2022-09-20T21:34:02;10.80;99.90
47168;DHT22;32931;47.778;17.806;2022-09-20T21:36:29;10.70;99.90
47168;DHT22;32931;47.778;17.806;2022-09-20T21:38:56;10.70;99.90
47168;DHT22;32931;47.778;17.806;2022-09-20T21:41:27;10.70;99.90
47168;DHT22;32931;47.778;17.806;2022-09-20T21:43:58;10.70;99.90
47168;DHT22;32931;47.778;17.806;2022-09-20T21:46:27;10.70;99.90
47168;DHT22;32931;47.778;17.806;2022-09-20T21:48:55;10.70;99.90
47168;DHT22;32931;47.778;17.806;2022-09-20T21:51:22;10.80;99.90
47168;DHT22;32931;47.778;17.806;2022-09-20T21:53:53;10.80;99.90
47168;DHT22;32931;47.778;17.806;2022-09-20T21:56:25;10.80;99.90
47168;DHT22;32931;47.778;17.806;2022-09-20T21:58:53;10.80;99.90
47168;DHT22;32931;47.778;17.806;2022-09-20T22:01:21;10.70;99.90
47168;DHT22;32931;47.778;17.806;2022-09-20T22:03:52;10.70;99.90
47168;DHT22;32931;47.778;17.806;2022-09-20T22:06:26;10.70;99.90
47168;DHT22;32931;47.778;17.806;2022-09-20T22:08:54;10.70;99.90
47168;DHT22;32931;47.778;17.806;2022-09-20T22:11:34;10.70;99.90
47168;DHT22;32931;47.778;17.806;2022-09-20T22:14:01;10.70;99.90
47168;DHT22;32931;47.778;17.806;2022-09-20T22:16:29;10.70;99.90
47168;DHT22;32931;47.778;17.806;2022-09-20T22:18:56;10.70;99.90
47168;DHT22;32931;47.778;17.806;2022-09-20T22:21:24;10.60;99.90
47168;DHT22;32931;47.778;17.806;2022-09-20T22:23:53;10.60;99.90
47168;DHT22;32931;47.778;17.806;2022-09-20T22:26:21;10.60;99.90
47168;DHT22;32931;47.778;17.806;2022-09-20T22:28:47;10.60;99.90
47168;DHT22;32931;47.778;17.806;2022-09-20T22:31:19;10.60;99.90
47168;DHT22;32931;47.778;17.806;2022-09-20T22:33:50;10.70;99.90
47168;DHT22;32931;47.778;17.806;2022-09-20T22:36:23;10.70;99.90
47168;DHT22;32931;47.778;17.806;2022-09-20T22:38:49;10.70;99.90
47168;DHT22;32931;47.778;17.806;2022-09-20T22:41:17;10.60;99.90
47168;DHT22;32931;47.778;17.806;2022-09-20T22:43:43;10.60;99.90
47168;DHT22;32931;47.778;17.806;2022-09-20T22:46:15;10.70;99.90
47168;DHT22;32931;47.778;17.806;2022-09-20T22:48:41;10.70;99.90
47168;DHT22;32931;47.778;17.806;2022-09-20T22:51:16;10.60;99.90
47168;DHT22;32931;47.778;17.806;2022-09-20T22:53:44;10.60;99.90
47168;DHT22;32931;47.778;17.806;2022-09-20T22:56:13;10.70;99.90
47168;DHT22;32931;47.778;17.806;2022-09-20T22:58:42;10.70;99.90
47168;DHT22;32931;47.778;17.806;2022-09-20T23:03:37;10.80;99.90
47168;DHT22;32931;47.778;17.806;2022-09-20T23:06:11;10.80;99.90
47168;DHT22;32931;47.778;17.806;2022-09-20T23:08:38;10.80;99.90
47168;DHT22;32931;47.778;17.806;2022-09-20T23:11:05;10.80;99.90
47168;DHT22;32931;47.778;17.806;2022-09-20T23:13:31;10.80;99.90
47168;DHT22;32931;47.778;17.806;2022-09-20T23:15:58;10.80;99.90
47168;DHT22;32931;47.778;17.806;2022-09-20T23:18:24;10.80;99.90
47168;DHT22;32931;47.778;17.806;2022-09-20T23:20:59;10.80;99.90
47168;DHT22;32931;47.778;17.806;2022-09-20T23:23:25;10.80;99.90
47168;DHT22;32931;47.778;17.806;2022-09-20T23:25:52;10.80;99.90
47168;DHT22;32931;47.778;17.806;2022-09-20T23:28:21;10.80;99.90
47168;DHT22;32931;47.778;17.806;2022-09-20T23:30:47;10.80;99.90
47168;DHT22;32931;47.778;17.806;2022-09-20T23:33:14;10.80;99.90
47168;DHT22;32931;47.778;17.806;2022-09-20T23:35:44;10.70;99.90
47168;DHT22;32931;47.778;17.806;2022-09-20T23:38:11;10.70;99.90
47168;DHT22;32931;47.778;17.806;2022-09-20T23:40:39;10.70;99.90
47168;DHT22;32931;47.778;17.806;2022-09-20T23:43:05;10.60;99.90
47168;DHT22;32931;47.778;17.806;2022-09-20T23:45:31;10.60;99.90
47168;DHT22;32931;47.778;17.806;2022-09-20T23:47:58;10.70;99.90
47168;DHT22;32931;47.778;17.806;2022-09-20T23:50:24;10.60;99.90
47168;DHT22;32931;47.778;17.806;2022-09-20T23:52:50;10.70;99.90
47168;DHT22;32931;47.778;17.806;2022-09-20T23:55:16;10.60;99.90
47168;DHT22;32931;47.778;17.806;2022-09-20T23:57:42;10.60;99.90
